Willoughby, OH (44095)

9:05 AM EDT on May 06, 2015 (GMT -0400)
Reeves Road | | Change Station
CLOSE
Current Station
Personal Weather Station
Location: Eastlake, OH
Elevation: 607 ft
Nearby Weather Stations

Elev 607 ft 41.67 °N, 81.42 °W | Updated 4 minutes ago

Fog
Fog
54.9 °F
Feels Like 54.9 °F
N
0.0
Wind Variable Wind from North

Today
High -- | Low -- °F
--% Chance of Precip.
Yesterday
High -- | Low -- °F
Precip. -- in
6:16 AM 8:29 PM
Waning Gibbous, 94% visible
Pressure 30.25 in
Visibility 0.2 miles
Clouds
Dew Point 54 °F
Humidity 96%
Rainfall 0.25 in
Snow Depth Not available.
UV Not available.
Pollen 5.10 out of 12
Air Quality Not available.
Flu Activity Regional
METAR KCGF 061245Z 30005KT 1/4SM FG VV003 15/15 A3025

More Conditions Fewer Conditions

Pressure 30.25 in
Visibility 0.2 miles
Clouds
Dew Point 54 °F
Humidity 96%
Rainfall 0.25 in
Snow Depth Not available.
UV Not available.
Pollen 5.10 out of 12
Air Quality Not available.
Flu Activity Regional
METAR KCGF 061245Z 30005KT 1/4SM FG VV003 15/15 A3025

More Conditions Fewer Conditions

10-Day Weather Forecast

Almanac

Astronomy

May. 06, 2015 Rise Set
Actual Time
Civil Twilight
Nautical Twilight
Astronomical Twilight
Moon
Length of Visible Light
Length of Day
Tomorrow will be .
, % of the Moon is Illuminated

Today's Extremes

State Highs State Lows

Community

WunderPhotos

Upload Photos

1,818,892 photos uploaded!

WunderBlogs® & News

Nearby

Air Quality

  Air Quality AQ Index Pollutant
Not available.

Snow Depth

Station Depth Elevation

Earthquake Activity

City Distance Mag. Time & Date
Minimum magnitude displayed is 2.5.

Coastal Water Temperatures

Place Temperature

Stations

Nearby Weather Stations

Station Location Temp. Windchill Dew Point Humidity Wind Precip. Elev Updated Type